Time;durP1;ratioP1;P1;durP2;ratioP2;P2;SDS_P1;SDS_P2;PMS_P1;PMS_P2;Temp;Humidity;BMP_temperature;BMP_pressure;BME280_temperature;BME280_humidity;BME280_pressure;Samples;Min_cycle;Max_cycle;Signal;HPM_P1;HPM_P2
2023/01/20 00:01:30;;;;;;;11.60;9.07;;;17.60;72.40;;;18.53;40.27;98012.06;5099303;27;20103;-85
2023/01/20 00:03:56;;;;;;;11.80;9.15;;;17.60;72.30;;;18.55;40.40;98016.06;5082353;27;20758;-85
2023/01/20 00:06:23;;;;;;;11.07;8.10;;;17.60;72.30;;;18.56;40.26;98017.66;5055984;27;20497;-85
2023/01/20 00:08:57;;;;;;;11.50;8.48;;;17.50;72.30;;;18.52;40.32;98013.19;5066898;27;20106;-85
2023/01/20 00:11:24;;;;;;;12.40;8.27;;;17.50;72.30;;;18.52;40.21;98013.19;5115389;27;20039;-85
2023/01/20 00:13:59;;;;;;;9.35;7.65;;;17.50;72.20;;;18.53;40.41;98004.63;5096228;27;20039;-85
2023/01/20 00:16:25;;;;;;;8.95;7.03;;;17.60;72.40;;;18.52;40.53;98008.53;5079810;27;20084;-85
2023/01/20 00:18:51;;;;;;;11.50;8.27;;;17.60;72.40;;;18.50;40.26;98016.31;5081861;27;20066;-85
2023/01/20 00:21:17;;;;;;;11.85;8.45;;;17.50;72.30;;;18.52;40.40;98014.00;5083300;27;20035;-85
2023/01/20 00:23:44;;;;;;;10.35;8.25;;;17.50;72.30;;;18.49;40.64;98019.38;5082911;27;20039;-85
2023/01/20 00:26:13;;;;;;;11.18;8.55;;;17.50;72.30;;;18.48;40.29;98021.34;5083451;27;20039;-85
2023/01/20 00:28:39;;;;;;;13.38;8.50;;;17.50;72.40;;;18.49;40.43;98027.63;5066771;27;20476;-85
2023/01/20 00:31:09;;;;;;;12.35;8.73;;;17.50;72.30;;;18.47;40.46;98032.66;5073898;27;20039;-85
2023/01/20 00:33:35;;;;;;;10.57;7.63;;;17.50;72.30;;;18.50;40.34;98031.97;5088352;27;20050;-85
2023/01/20 00:36:02;;;;;;;12.60;8.30;;;17.50;72.40;;;18.53;40.66;98031.28;5097632;27;20047;-85
2023/01/20 00:38:28;;;;;;;12.50;8.70;;;17.50;72.80;;;18.50;40.71;98029.25;5115420;27;20383;-86
2023/01/20 00:40:54;;;;;;;9.80;7.72;;;17.60;72.80;;;18.54;40.52;98043.88;5082465;27;20108;-85
2023/01/20 00:43:21;;;;;;;10.23;7.38;;;17.60;72.70;;;18.53;40.33;98047.75;5092535;27;20066;-85
2023/01/20 00:45:47;;;;;;;9.55;7.43;;;17.50;72.70;;;18.55;40.47;98042.75;5058603;27;20498;-85
2023/01/20 00:48:13;;;;;;;11.55;7.78;;;17.50;73.40;;;18.57;40.38;98037.69;5065526;27;20035;-85
2023/01/20 00:50:39;;;;;;;13.43;7.93;;;17.50;72.50;;;18.55;40.21;98023.50;5099088;27;20028;-85
2023/01/20 00:53:05;;;;;;;13.35;9.20;;;17.60;72.40;;;18.56;40.27;98025.09;5082309;27;20045;-85
2023/01/20 00:55:31;;;;;;;9.73;7.88;;;17.60;72.40;;;18.56;40.31;98028.63;5092385;27;20047;-85
2023/01/20 00:57:57;;;;;;;11.18;7.72;;;17.60;72.40;;;18.61;40.13;98030.34;5059071;27;20449;-86
2023/01/20 01:00:23;;;;;;;10.43;7.90;;;17.60;72.40;;;18.56;40.32;98042.38;5095463;27;20035;-86
2023/01/20 01:02:49;;;;;;;11.82;7.63;;;17.60;72.40;;;18.56;40.36;98050.63;5089530;27;20062;-86
2023/01/20 01:05:16;;;;;;;9.75;8.40;;;17.50;72.40;;;18.59;40.19;98054.63;5064883;27;20123;-86
2023/01/20 01:07:42;;;;;;;12.82;8.23;;;17.60;72.30;;;18.58;40.37;98061.25;5092171;27;20059;-85
2023/01/20 01:10:09;;;;;;;14.43;8.30;;;17.60;72.30;;;18.57;40.43;98076.94;5055275;28;20044;-86
2023/01/20 01:12:37;;;;;;;10.65;7.68;;;17.60;72.40;;;18.61;40.29;98088.03;5080278;27;20412;-85
2023/01/20 01:15:04;;;;;;;13.65;7.88;;;17.60;72.40;;;18.63;40.20;98081.06;5080653;27;20114;-85
2023/01/20 01:17:29;;;;;;;11.20;7.50;;;17.60;72.20;;;18.60;40.31;98078.22;5082674;27;20146;-85
2023/01/20 01:19:56;;;;;;;10.70;8.05;;;17.60;72.30;;;18.60;40.21;98080.94;5054412;27;20035;-85
2023/01/20 01:22:22;;;;;;;16.15;9.85;;;17.60;72.30;;;18.61;40.16;98066.06;5060488;27;20049;-86
2023/01/20 01:24:48;;;;;;;12.52;8.40;;;17.60;72.30;;;18.59;40.33;98062.84;5059711;27;20039;-85
2023/01/20 01:27:14;;;;;;;11.85;8.35;;;17.60;72.50;;;18.57;40.20;98054.97;5082021;27;20487;-85
2023/01/20 01:29:40;;;;;;;11.60;7.63;;;17.60;72.40;;;18.60;40.26;98064.47;5094431;27;20038;-85
2023/01/20 01:32:06;;;;;;;12.95;7.70;;;17.60;72.40;;;18.58;40.31;98050.28;5061998;28;20048;-85
2023/01/20 01:34:32;;;;;;;10.43;7.43;;;17.60;72.40;;;18.58;40.38;98050.28;5079674;27;20039;-85
2023/01/20 01:36:58;;;;;;;11.82;7.85;;;17.60;72.40;;;18.55;40.18;98042.75;5082081;27;20043;-86
2023/01/20 01:39:26;;;;;;;10.93;8.07;;;17.60;72.40;;;18.56;40.44;98049.81;5077135;27;20042;-86
2023/01/20 01:41:51;;;;;;;10.90;7.60;;;17.60;72.30;;;18.57;40.23;98059.66;5062219;27;20044;-85
2023/01/20 01:44:19;;;;;;;10.43;7.75;;;17.60;72.40;;;18.56;40.39;98052.56;5071176;27;20047;-85
2023/01/20 01:46:45;;;;;;;10.15;8.18;;;17.60;72.40;;;18.57;40.17;98054.97;5061534;28;20043;-85
2023/01/20 01:49:38;;;;;;;13.07;8.88;;;17.60;72.30;;;18.56;40.35;98044.31;5081426;27;20095;-86
2023/01/20 01:52:07;;;;;;;12.65;8.48;;;17.50;72.40;;;18.55;40.27;98045.47;5089536;27;20059;-85
2023/01/20 01:54:37;;;;;;;10.25;7.65;;;17.50;72.50;;;18.56;40.40;98063.56;5063944;27;20047;-85
2023/01/20 01:57:06;;;;;;;10.57;8.45;;;17.50;72.40;;;18.57;40.14;98076.94;5065097;27;20043;-85
2023/01/20 01:59:32;;;;;;;9.70;7.43;;;17.50;72.40;;;18.55;40.32;98071.00;5082094;27;20087;-85
2023/01/20 02:01:58;;;;;;;9.88;7.40;;;17.50;72.30;;;18.57;40.17;98078.88;5081257;27;20653;-86
2023/01/20 02:04:26;;;;;;;9.45;7.15;;;17.60;72.50;;;18.57;40.21;98071.47;5092559;28;20519;-86
2023/01/20 02:07:07;;;;;;;10.80;7.88;;;17.50;72.30;;;18.56;40.31;98060.81;5091677;28;20095;-86
2023/01/20 02:09:34;;;;;;;11.52;8.55;;;17.50;72.50;;;18.56;40.32;98071.78;5075665;28;20059;-86
2023/01/20 02:12:07;;;;;;;13.20;8.70;;;17.50;72.40;;;18.53;40.08;98072.47;5077735;28;20089;-86
2023/01/20 02:14:40;;;;;;;12.57;8.43;;;17.50;72.50;;;18.54;40.21;98071.31;5061805;28;20044;-86
2023/01/20 02:17:37;;;;;;;9.55;8.07;;;17.50;72.50;;;18.53;40.52;98078.78;5078156;28;20500;-86
2023/01/20 02:20:21;;;;;;;11.95;8.63;;;17.50;72.80;;;18.54;40.52;98093.28;5090851;28;20035;-86
2023/01/20 02:23:30;;;;;;;12.43;7.32;;;17.50;73.00;;;18.51;40.53;98088.50;5110879;27;20167;-86
2023/01/20 02:26:17;;;;;;;11.20;7.82;;;17.50;73.20;;;18.56;40.59;98080.03;5044047;27;20130;-86
2023/01/20 02:29:14;;;;;;;10.10;7.25;;;17.50;72.90;;;18.55;40.54;98090.22;5136953;27;20035;-86
2023/01/20 02:32:17;;;;;;;11.52;8.32;;;17.50;72.70;;;18.52;40.35;98076.34;5116308;27;20045;-86
2023/01/20 02:34:58;;;;;;;11.00;7.32;;;17.50;72.80;;;18.53;40.45;98086.22;5118034;27;20083;-86
2023/01/20 02:37:38;;;;;;;14.60;7.93;;;17.50;72.60;;;18.51;40.43;98085.75;5086185;27;20153;-86
2023/01/20 02:40:30;;;;;;;13.77;8.55;;;17.50;72.60;;;18.52;40.47;98090.91;5082906;27;20042;-86
2023/01/20 02:42:59;;;;;;;;;;;17.50;72.70;;;18.49;40.25;98091.56;5097225;27;20107;-86
2023/01/20 02:45:57;;;;;;;10.27;8.57;;;17.50;72.60;;;18.52;40.47;98092.84;5101511;27;19923;-86
2023/01/20 02:48:38;;;;;;;10.60;7.43;;;17.50;72.70;;;18.52;40.28;98090.09;5080050;27;20394;-86
2023/01/20 02:51:23;;;;;;;10.60;7.55;;;17.50;72.60;;;18.51;40.28;98096.75;5140321;27;20141;-86
2023/01/20 02:53:59;;;;;;;10.07;8.18;;;17.40;72.50;;;18.50;40.51;98100.63;5099913;28;20043;-84
2023/01/20 02:56:27;;;;;;;10.50;8.13;;;17.50;72.60;;;18.49;40.47;98102.56;5079644;27;20046;-86
2023/01/20 02:59:14;;;;;;;11.32;7.85;;;17.50;72.60;;;18.49;40.31;98107.25;5090270;27;20069;-86
2023/01/20 03:01:57;;;;;;;10.50;7.82;;;17.50;72.60;;;18.49;40.40;98107.25;5071048;27;20039;-86
2023/01/20 03:04:28;;;;;;;12.10;8.23;;;17.50;72.70;;;18.49;40.28;98107.25;5072396;27;20091;-85
2023/01/20 03:06:54;;;;;;;9.68;6.65;;;17.50;72.60;;;18.48;40.29;98111.94;5081837;27;20054;-85
2023/01/20 03:09:26;;;;;;;10.48;7.80;;;17.50;72.60;;;18.49;40.84;98101.75;5064631;27;20130;-85
2023/01/20 03:11:56;;;;;;;10.63;7.97;;;17.50;72.90;;;18.48;40.77;98102.91;5088662;27;20063;-85
2023/01/20 03:14:23;;;;;;;11.60;7.70;;;17.50;73.00;;;18.44;40.92;98100.03;5088382;27;20039;-86
2023/01/20 03:16:49;;;;;;;8.70;7.03;;;17.50;72.90;;;18.49;40.36;98099.03;5087567;27;20096;-86
2023/01/20 03:19:16;;;;;;;12.15;8.00;;;17.50;72.90;;;18.48;40.44;98100.19;5070843;27;20049;-85
2023/01/20 03:21:42;;;;;;;12.10;7.22;;;17.40;72.90;;;18.48;40.44;98100.19;5091826;27;20092;-85
2023/01/20 03:24:08;;;;;;;12.10;7.65;;;17.40;72.70;;;18.51;40.47;98100.28;5085160;27;20046;-85
2023/01/20 03:26:34;;;;;;;10.00;7.00;;;17.40;72.90;;;18.49;40.76;98101.75;5070805;27;20035;-86
2023/01/20 03:29:08;;;;;;;10.88;7.30;;;17.40;73.00;;;18.49;40.89;98096.28;5082919;27;20043;-86
2023/01/20 03:32:04;;;;;;;10.77;7.95;;;17.50;73.30;;;18.46;40.79;98105.19;5069967;27;20055;-86
2023/01/20 03:34:32;;;;;;;11.77;7.65;;;17.50;73.00;;;18.44;40.66;98122.84;5100805;27;20047;-86
2023/01/20 03:36:58;;;;;;;9.48;7.40;;;17.50;72.90;;;18.43;40.63;98126.69;5054323;27;20039;-86
2023/01/20 03:39:24;;;;;;;8.50;6.55;;;17.40;72.90;;;18.44;40.74;98133.81;5062194;27;20046;-86
2023/01/20 03:42:09;;;;;;;10.95;7.88;;;17.40;73.00;;;18.42;40.66;98129.81;5085211;27;20035;-86
2023/01/20 03:45:19;;;;;;;15.32;8.25;;;17.40;72.90;;;18.41;40.72;98139.19;5076387;27;20039;-86
2023/01/20 03:47:56;;;;;;;13.63;8.68;;;17.40;72.90;;;18.39;40.56;98136.78;5111706;27;20054;-86
2023/01/20 03:50:43;;;;;;;9.15;6.97;;;17.40;72.90;;;18.40;40.58;98130.13;5110913;27;20049;-85
2023/01/20 03:53:31;;;;;;;10.57;6.90;;;17.40;72.90;;;18.43;40.81;98140.44;5076096;28;20036;-85
2023/01/20 03:56:23;;;;;;;13.02;7.68;;;17.40;73.20;;;18.40;40.90;98149.38;5109743;27;20825;-86
2023/01/20 03:58:51;;;;;;;9.82;7.50;;;17.40;73.40;;;18.37;40.89;98152.00;5082583;27;20039;-85
2023/01/20 04:01:19;;;;;;;12.23;8.25;;;17.40;73.10;;;18.41;40.92;98152.91;5099828;27;20035;-85
2023/01/20 04:03:47;;;;;;;14.48;7.85;;;17.40;73.10;;;18.37;40.77;98143.75;5057448;28;20027;-86
2023/01/20 04:06:14;;;;;;;10.27;7.72;;;17.40;73.00;;;18.37;40.91;98139.06;5080995;27;20050;-85
2023/01/20 04:08:49;;;;;;;10.63;7.25;;;17.40;73.00;;;18.35;40.88;98144.09;5058558;28;20056;-86
2023/01/20 04:11:16;;;;;;;11.75;7.68;;;17.40;73.10;;;18.35;40.88;98140.56;5071851;28;20040;-85
2023/01/20 04:13:42;;;;;;;10.73;7.43;;;17.30;72.90;;;18.33;40.90;98149.13;5056652;28;20048;-85
2023/01/20 04:16:12;;;;;;;9.95;7.22;;;17.40;73.00;;;18.36;40.65;98150.38;5061216;28;20107;-85
2023/01/20 04:18:44;;;;;;;11.02;8.00;;;17.30;73.00;;;18.35;40.65;98138.59;5080893;28;20356;-85
2023/01/20 04:21:21;;;;;;;10.30;7.25;;;17.30;73.00;;;18.32;40.70;98143.94;5093838;28;20057;-85
2023/01/20 04:24:29;;;;;;;9.90;7.43;;;17.30;73.20;;;18.34;41.02;98145.25;5092301;28;20047;-85
2023/01/20 04:26:56;;;;;;;10.65;7.15;;;17.30;73.30;;;18.35;41.09;98157.03;5108649;28;20055;-85
2023/01/20 04:29:22;;;;;;;8.10;7.00;;;17.30;73.40;;;18.35;40.75;98160.56;5094073;28;20524;-85
2023/01/20 04:31:48;;;;;;;10.93;7.25;;;17.30;73.40;;;18.31;40.99;98167.88;5060258;28;20116;-85
2023/01/20 04:34:14;;;;;;;8.65;6.93;;;17.30;73.40;;;18.30;41.09;98168.22;5060094;28;20534;-85
2023/01/20 04:36:41;;;;;;;10.35;7.25;;;17.30;73.30;;;18.28;40.73;98176.78;5062354;28;20046;-85
2023/01/20 04:39:07;;;;;;;10.25;7.30;;;17.20;73.20;;;18.30;40.80;98176.47;5080235;28;20042;-85
2023/01/20 04:41:34;;;;;;;10.15;7.53;;;17.20;73.30;;;18.31;41.05;98175.31;5067146;28;20044;-85
2023/01/20 04:44:00;;;;;;;12.73;7.60;;;17.20;73.20;;;18.28;40.83;98185.03;5069794;28;20032;-85
2023/01/20 04:46:26;;;;;;;10.38;8.07;;;17.20;73.20;;;18.23;40.88;98188.78;5093281;28;20040;-85
2023/01/20 04:48:52;;;;;;;11.65;8.00;;;17.20;73.30;;;18.20;41.03;98196.91;5073700;28;20039;-85
2023/01/20 04:51:18;;;;;;;9.45;7.45;;;17.20;73.20;;;18.24;40.70;98195.06;5078881;28;20061;-85
2023/01/20 04:53:44;;;;;;;9.52;8.07;;;17.10;73.20;;;18.23;40.98;98196.22;5078800;28;20074;-85
2023/01/20 04:56:12;;;;;;;11.93;7.88;;;17.20;73.30;;;18.23;40.86;98196.22;5083481;28;20119;-85
2023/01/20 04:58:38;;;;;;;10.60;7.22;;;17.10;73.20;;;18.22;40.86;98194.63;5096392;28;20035;-85
2023/01/20 05:01:04;;;;;;;10.48;7.18;;;17.10;73.40;;;18.19;41.01;98198.84;5093663;28;20035;-85
2023/01/20 05:03:30;;;;;;;9.98;7.43;;;17.10;73.30;;;18.21;40.86;98203.97;5079834;28;20042;-85
2023/01/20 05:05:56;;;;;;;11.90;6.95;;;17.10;73.30;;;18.21;40.99;98204.78;5068454;28;20476;-86
2023/01/20 05:08:22;;;;;;;11.43;7.03;;;17.10;73.30;;;18.17;41.12;98203.06;5081694;27;20142;-85
2023/01/20 05:10:48;;;;;;;9.30;7.40;;;17.10;73.20;;;18.18;41.07;98202.72;5063378;27;20039;-85
2023/01/20 05:13:14;;;;;;;11.52;7.38;;;17.10;73.30;;;18.22;41.06;98213.84;5081248;27;20360;-85
2023/01/20 05:15:42;;;;;;;12.27;7.70;;;17.10;73.60;;;18.25;41.28;98212.38;5062165;28;20032;-85
2023/01/20 05:18:08;;;;;;;10.82;7.85;;;17.10;73.70;;;18.20;41.06;98216.91;5094836;27;20043;-85
2023/01/20 05:20:34;;;;;;;10.63;6.43;;;17.10;73.50;;;18.18;40.93;98221.13;5097988;27;20039;-85
2023/01/20 05:23:00;;;;;;;9.45;6.63;;;17.10;73.50;;;18.19;41.10;98215.31;5089518;27;20176;-85
2023/01/20 05:25:26;;;;;;;9.88;7.78;;;17.10;73.50;;;18.18;41.14;98223.88;5079254;28;20076;-85
2023/01/20 05:27:52;;;;;;;12.10;7.32;;;17.10;73.50;;;18.14;41.34;98225.69;5077880;27;20063;-85
2023/01/20 05:30:18;;;;;;;9.73;7.40;;;17.10;73.50;;;18.15;41.14;98230.06;5081825;27;20034;-85
2023/01/20 05:32:45;;;;;;;11.38;7.90;;;17.10;73.60;;;18.14;40.90;98231.19;5091192;27;20050;-85
2023/01/20 05:35:11;;;;;;;10.55;7.30;;;17.00;73.50;;;18.15;41.00;98230.84;5090446;27;20049;-83
2023/01/20 05:37:37;;;;;;;9.95;7.25;;;17.00;73.40;;;18.17;40.94;98227.78;5096480;27;20131;-83
2023/01/20 05:40:04;;;;;;;10.30;7.25;;;17.00;73.50;;;18.18;40.92;98221.13;5079610;27;20039;-83
2023/01/20 05:42:31;;;;;;;9.93;7.78;;;17.00;73.60;;;18.15;40.78;98232.81;5077191;27;20501;-83
2023/01/20 05:44:58;;;;;;;9.73;7.47;;;17.00;73.50;;;18.18;41.16;98234.88;5063799;27;20445;-83
2023/01/20 05:47:24;;;;;;;12.40;7.50;;;17.00;73.70;;;18.15;41.26;98241.03;5081381;27;20039;-83
2023/01/20 05:49:50;;;;;;;11.68;7.68;;;17.00;73.80;;;18.13;40.97;98237.81;5081715;27;20035;-83
2023/01/20 05:52:17;;;;;;;8.77;6.55;;;17.10;73.80;;;18.11;41.18;98237.34;5109183;27;20046;-83
2023/01/20 05:54:43;;;;;;;9.90;7.00;;;17.00;73.60;;;18.09;41.10;98240.44;5055503;27;20118;-83
2023/01/20 05:57:09;;;;;;;9.27;6.88;;;17.00;73.60;;;18.10;41.26;98250.28;5080506;27;20046;-83
2023/01/20 05:59:38;;;;;;;12.45;7.30;;;17.00;73.70;;;18.08;41.21;98249.00;5077769;27;20039;-84
2023/01/20 06:02:04;;;;;;;9.65;7.25;;;16.90;73.60;;;18.12;41.29;98248.00;5081640;27;20067;-84
2023/01/20 06:04:30;;;;;;;8.82;7.40;;;17.00;74.00;;;18.11;41.39;98245.59;5094189;28;20039;-83
2023/01/20 06:06:57;;;;;;;10.80;7.72;;;17.00;74.00;;;18.11;41.25;98246.38;5079361;27;20372;-84
2023/01/20 06:09:23;;;;;;;12.80;8.10;;;16.90;73.80;;;18.08;40.92;98251.75;5079320;27;20464;-83
2023/01/20 06:11:50;;;;;;;10.20;7.28;;;16.90;73.90;;;18.07;41.22;98250.16;5109211;27;20031;-83
2023/01/20 06:14:19;;;;;;;10.20;7.38;;;16.90;73.90;;;18.04;41.33;98257.13;5095200;28;20071;-84
2023/01/20 06:16:44;;;;;;;11.15;7.97;;;16.90;73.90;;;18.06;41.19;98254.03;5078149;27;20435;-83
2023/01/20 06:19:11;;;;;;;9.73;7.57;;;16.90;74.00;;;18.02;40.88;98251.16;5075851;28;20087;-84
2023/01/20 06:21:37;;;;;;;10.45;7.47;;;16.90;74.00;;;17.97;41.02;98254.09;5080373;28;20084;-84
2023/01/20 06:24:04;;;;;;;10.27;7.72;;;16.80;73.90;;;18.01;41.28;98263.25;5077514;28;20054;-84
2023/01/20 06:26:31;;;;;;;9.88;6.88;;;16.80;74.00;;;18.02;41.18;98264.09;5077348;28;20056;-84
2023/01/20 06:28:59;;;;;;;11.50;8.13;;;16.80;73.80;;;17.97;41.30;98271.38;5079788;28;20425;-84
2023/01/20 06:31:27;;;;;;;10.23;7.75;;;16.80;73.90;;;17.98;41.19;98270.22;5075918;28;20080;-83
2023/01/20 06:33:55;;;;;;;13.23;8.57;;;16.80;74.00;;;17.95;41.40;98275.59;5064983;28;20123;-84
2023/01/20 06:36:21;;;;;;;14.27;8.95;;;16.80;74.00;;;17.91;41.49;98275.47;5077657;28;20039;-83
2023/01/20 06:38:49;;;;;;;11.13;7.82;;;16.70;74.00;;;17.94;41.25;98279.47;5074019;28;20383;-83
2023/01/20 06:41:16;;;;;;;11.85;7.63;;;16.70;74.10;;;17.96;41.20;98278.00;5054047;27;20035;-83
2023/01/20 06:43:43;;;;;;;13.00;7.97;;;16.70;74.00;;;17.93;41.18;98286.88;5059426;28;20063;-83
2023/01/20 06:46:11;;;;;;;9.80;7.60;;;16.70;73.90;;;17.92;41.33;98281.75;5078914;28;20775;-83
2023/01/20 06:48:37;;;;;;;10.07;7.45;;;16.70;74.00;;;17.93;41.22;98289.63;5095968;28;20047;-83
2023/01/20 06:51:15;;;;;;;11.55;7.85;;;16.70;74.10;;;17.89;41.36;98283.22;5062932;27;20042;-83
2023/01/20 06:53:42;;;;;;;8.98;7.70;;;16.60;74.00;;;17.88;41.18;98286.28;5096065;28;20053;-83
2023/01/20 06:56:12;;;;;;;13.23;8.13;;;16.70;74.10;;;17.89;41.34;98285.16;5074790;28;20050;-83
2023/01/20 06:58:39;;;;;;;11.38;8.45;;;16.60;74.10;;;17.88;40.97;98291.78;5094749;28;20494;-84
2023/01/20 07:01:19;;;;;;;12.52;7.95;;;16.60;74.00;;;17.88;41.30;98303.53;5060907;27;20355;-84
2023/01/20 07:03:46;;;;;;;12.85;8.43;;;16.60;74.10;;;17.89;41.27;98305.16;5082701;27;20045;-83
2023/01/20 07:06:17;;;;;;;11.32;7.53;;;16.60;74.20;;;17.87;41.35;98307.44;5061791;28;20043;-83
2023/01/20 07:08:44;;;;;;;13.57;7.97;;;16.60;74.20;;;17.88;41.37;98292.56;5089143;27;20054;-83
2023/01/20 07:11:12;;;;;;;11.40;8.95;;;16.50;74.20;;;17.85;41.14;98297.94;5079020;27;20075;-83
2023/01/20 07:13:39;;;;;;;12.10;7.45;;;16.50;74.20;;;17.85;41.23;98303.41;5082178;27;20087;-83
2023/01/20 07:16:05;;;;;;;9.55;7.15;;;16.60;74.20;;;17.86;41.15;98297.63;5069558;27;20036;-84
2023/01/20 07:18:31;;;;;;;9.30;6.97;;;16.60;74.10;;;17.82;41.30;98296.66;5099816;27;20708;-84
2023/01/20 07:20:57;;;;;;;12.70;8.57;;;16.60;74.10;;;17.82;41.28;98306.84;5067086;27;20036;-83
2023/01/20 07:23:23;;;;;;;11.25;8.63;;;16.50;74.20;;;17.86;41.35;98302.28;5082336;27;20106;-83
2023/01/20 07:26:00;;;;;;;11.80;8.45;;;16.60;74.40;;;17.85;41.25;98315.19;5066515;27;20051;-83
2023/01/20 07:28:26;;;;;;;11.32;7.57;;;16.50;74.40;;;17.84;41.03;98301.81;5066344;27;20043;-83
2023/01/20 07:30:52;;;;;;;18.10;9.32;;;16.50;74.40;;;17.81;41.34;98310.69;5064450;27;20039;-83
2023/01/20 07:33:18;;;;;;;14.98;8.48;;;16.50;74.40;;;17.83;41.07;98322.94;5079966;27;20038;-83
2023/01/20 07:35:49;;;;;;;14.55;8.60;;;16.50;74.20;;;17.80;40.98;98320.88;5064086;27;20431;-83
2023/01/20 07:38:15;;;;;;;10.13;7.43;;;16.50;74.20;;;17.83;41.41;98311.19;5061862;27;20087;-84
2023/01/20 07:40:41;;;;;;;13.15;8.85;;;16.50;74.10;;;17.81;41.35;98313.44;5061537;27;20031;-83
2023/01/20 07:43:08;;;;;;;11.98;8.07;;;16.50;74.20;;;17.83;41.28;98317.47;5099616;27;20693;-83
2023/01/20 07:45:34;;;;;;;12.52;8.50;;;16.50;74.30;;;17.76;41.40;98317.97;5064292;28;20039;-84
2023/01/20 07:48:02;;;;;;;14.55;9.45;;;16.50;74.40;;;17.77;41.17;98318.78;5084032;27;20039;-83
2023/01/20 07:50:28;;;;;;;13.07;8.38;;;16.50;74.40;;;17.81;41.18;98313.44;5084539;27;20035;-83
2023/01/20 07:52:55;;;;;;;12.70;8.85;;;16.40;74.30;;;17.83;41.39;98324.91;5066007;27;20032;-83
2023/01/20 07:55:21;;;;;;;13.10;9.27;;;16.50;74.30;;;17.83;41.32;98322.16;5075704;27;20054;-83
2023/01/20 07:57:47;;;;;;;13.10;8.98;;;16.50;74.40;;;17.85;41.20;98322.63;5059848;27;20042;-83
2023/01/20 08:00:13;;;;;;;12.38;9.10;;;16.50;74.40;;;17.83;40.96;98316.66;5083912;27;20039;-84
2023/01/20 08:02:39;;;;;;;12.20;8.73;;;16.50;74.20;;;17.82;41.00;98321.34;5083613;27;20443;-84
2023/01/20 08:05:06;;;;;;;14.48;9.70;;;16.50;74.10;;;17.82;41.42;98320.56;5100746;27;20039;-84
2023/01/20 08:07:32;;;;;;;15.50;10.35;;;16.50;74.10;;;17.81;41.25;98325.25;5080805;27;20892;-84
2023/01/20 08:09:58;;;;;;;14.00;9.90;;;16.50;73.80;;;17.79;40.85;98325.56;5061867;28;20127;-84
2023/01/20 08:12:28;;;;;;;12.38;9.18;;;16.50;73.40;;;17.78;40.76;98325.84;5058490;28;20059;-84
2023/01/20 08:14:54;;;;;;;13.98;9.85;;;16.50;73.10;;;17.78;40.72;98323.13;5076113;28;20043;-83
2023/01/20 08:17:21;;;;;;;15.45;10.63;;;16.50;73.30;;;17.81;40.33;98325.25;5059598;28;20024;-84
2023/01/20 08:19:47;;;;;;;15.02;10.27;;;16.40;72.90;;;17.87;40.65;98325.84;5089407;28;20433;-84
2023/01/20 08:22:13;;;;;;;19.17;10.95;;;16.50;73.80;;;17.90;41.02;98333.41;5092212;28;20368;-84
2023/01/20 08:24:39;;;;;;;17.15;10.13;;;16.60;73.90;;;17.84;40.72;98351.22;5078052;28;20129;-84
2023/01/20 08:27:05;;;;;;;14.23;9.93;;;16.60;73.60;;;17.84;40.96;98345.72;5085293;28;20101;-84
2023/01/20 08:29:32;;;;;;;15.18;9.77;;;16.50;73.60;;;17.82;40.79;98348.78;5060198;28;20039;-84
2023/01/20 08:31:59;;;;;;;18.23;9.93;;;16.50;73.60;;;17.78;41.01;98345.06;5061324;28;20059;-83
2023/01/20 08:34:26;;;;;;;16.50;10.77;;;16.50;73.50;;;17.78;41.06;98345.06;5076827;28;20052;-83
2023/01/20 08:36:53;;;;;;;17.00;10.95;;;16.50;73.60;;;17.79;41.16;98338.44;5074426;28;20040;-83
2023/01/20 08:39:19;;;;;;;15.48;9.68;;;16.50;73.60;;;17.78;41.06;98339.56;5057968;28;20050;-83
2023/01/20 08:41:46;;;;;;;16.55;10.75;;;16.60;73.50;;;17.82;41.16;98337.81;5089401;28;20292;-83
2023/01/20 08:44:13;;;;;;;15.25;9.65;;;16.60;73.50;;;17.85;41.00;98355.56;5072857;28;20044;-83
2023/01/20 08:46:42;;;;;;;12.63;9.45;;;16.60;73.70;;;17.83;41.05;98355.88;5075445;28;20169;-83
2023/01/20 08:49:14;;;;;;;19.40;10.85;;;16.60;73.80;;;17.80;40.95;98353.78;5071799;28;20566;-83
2023/01/20 08:51:42;;;;;;;15.95;10.55;;;16.60;73.60;;;17.83;41.13;98355.06;5088124;28;20042;-83
2023/01/20 08:54:08;;;;;;;14.57;10.10;;;16.60;73.60;;;17.82;41.19;98359.75;5075343;28;20047;-83
2023/01/20 08:56:35;;;;;;;20.35;10.60;;;16.60;73.70;;;17.80;41.34;98362.03;5090517;28;20356;-83
2023/01/20 08:59:02;;;;;;;15.95;9.75;;;16.60;73.90;;;17.78;41.31;98365.09;5101721;28;20035;-83
2023/01/20 09:01:30;;;;;;;13.85;9.77;;;16.60;73.80;;;17.80;40.77;98367.50;5073594;28;20123;-83
2023/01/20 09:03:59;;;;;;;14.20;9.98;;;16.60;73.40;;;17.81;40.79;98366.41;5055269;28;20044;-83
2023/01/20 09:06:26;;;;;;;15.68;10.60;;;16.60;73.30;;;17.81;40.64;98366.41;5091851;28;20038;-83
2023/01/20 09:08:52;;;;;;;20.42;10.43;;;16.60;73.10;;;17.82;41.05;98369.94;5089860;28;20371;-82
2023/01/20 09:11:21;;;;;;;13.95;10.32;;;16.60;73.70;;;17.85;41.27;98359.09;5078738;28;20046;-82
2023/01/20 09:13:48;;;;;;;18.00;10.07;;;16.60;74.10;;;17.83;40.82;98360.56;5072027;28;20039;-83
2023/01/20 09:16:15;;;;;;;16.45;10.13;;;16.70;73.30;;;17.87;40.85;98358.78;5058208;28;20092;-83
2023/01/20 09:18:41;;;;;;;17.33;10.90;;;16.70;73.60;;;17.89;41.06;98364.72;5075694;28;20130;-83
2023/01/20 09:21:08;;;;;;;17.88;10.77;;;16.70;73.70;;;17.88;41.06;98363.91;5075004;28;20044;-83
2023/01/20 09:23:36;;;;;;;22.58;10.13;;;16.70;73.60;;;17.95;41.82;98360.66;5055002;28;20040;-83
2023/01/20 09:26:06;;;;;;;15.27;10.02;;;16.70;75.10;;;17.91;41.17;98357.78;5049988;27;20090;-82
2023/01/20 09:28:32;;;;;;;17.98;10.63;;;16.70;73.80;;;17.91;41.40;98368.75;5072414;28;20062;-83
2023/01/20 09:31:08;;;;;;;17.55;10.75;;;16.70;74.10;;;17.90;41.06;98369.06;5070364;28;20050;-82
2023/01/20 09:33:40;;;;;;;13.80;10.85;;;16.70;73.90;;;17.90;41.01;98374.56;5089128;28;20035;-82
2023/01/20 09:36:08;;;;;;;17.38;10.43;;;16.70;73.80;;;17.88;41.36;98372.13;5087729;28;20127;-82
2023/01/20 09:44:38;;;;;;;20.92;11.63;;;16.70;73.80;;;17.87;41.04;98367.78;5110253;28;20047;-82
2023/01/20 09:47:20;;;;;;;14.52;10.07;;;16.80;73.60;;;17.90;40.96;98358.91;5103284;27;20088;-83
2023/01/20 09:53:04;;;;;;;16.85;11.38;;;16.80;73.40;;;17.91;40.95;98359.69;5107719;28;20040;-82
2023/01/20 09:55:48;;;;;;;17.35;10.82;;;16.80;73.30;;;17.98;41.15;98369.00;5106051;28;20053;-83
2023/01/20 09:58:48;;;;;;;15.95;12.10;;;16.80;73.70;;;18.00;41.34;98369.47;5093628;28;20032;-82
2023/01/20 10:01:34;;;;;;;20.73;12.18;;;16.80;73.90;;;17.98;40.93;98362.72;5103356;28;20043;-82
2023/01/20 10:04:19;;;;;;;22.38;11.85;;;16.80;73.50;;;17.95;40.97;98363.38;5092209;28;20036;-83
2023/01/20 10:06:58;;;;;;;17.33;12.65;;;16.90;73.40;;;17.91;40.99;98366.00;5101505;28;20035;-83
2023/01/20 10:09:37;;;;;;;18.08;11.68;;;16.90;73.30;;;17.94;41.07;98364.53;5091370;28;20095;-83
2023/01/20 10:12:30;;;;;;;20.17;11.95;;;16.90;73.30;;;17.92;41.07;98351.13;5073563;28;20088;-82
2023/01/20 10:15:25;;;;;;;14.70;11.20;;;16.90;73.30;;;17.91;40.95;98362.44;5104530;28;20475;-83
2023/01/20 10:18:22;;;;;;;15.07;11.73;;;16.90;73.20;;;17.93;40.86;98357.44;5092666;28;20036;-84
2023/01/20 10:21:09;;;;;;;17.98;12.23;;;16.90;73.20;;;17.90;41.16;98366.34;5124060;27;20043;-84
2023/01/20 10:23:50;;;;;;;16.65;11.15;;;16.90;73.10;;;17.90;41.12;98364.38;5074980;28;20412;-84
2023/01/20 10:26:45;;;;;;;18.80;12.40;;;16.90;73.10;;;17.93;40.99;98360.16;5091613;28;20062;-83
2023/01/20 10:34:21;;;;;;;21.15;13.10;;;16.90;73.00;;;17.89;41.00;98362.78;5004720;28;20060;-83
2023/01/20 10:37:06;;;;;;;22.15;13.27;;;16.90;73.00;;;17.90;41.06;98363.59;4985981;28;20143;-82
2023/01/20 10:40:00;;;;;;;16.67;12.38;;;16.90;72.90;;;17.83;41.09;98361.34;5073680;28;20142;-84
2023/01/20 10:42:27;;;;;;;20.90;13.15;;;16.90;73.00;;;17.85;40.93;98364.56;5087745;28;20032;-82